^^
Station Historical Data
 
Daily Summary for January 24, 2020 Units:  English    Metric   Both
Daily Weekly Monthly Yearly Custom
  Current: High: Low: Average:
Temperature: 46.2 °F 53.9 °F 24.9 °F 38.2 °F
Dew Point: 22.7 °F 23.3 °F 15.7 °F 20 °F
Humidity: 39.2% 68.6% 27% 49%
Wind Speed: 11mph 12.7mph 0mph 4.3mph
Wind Gust: 12mph 16mph - -
WindWest - - SSW
Pressure: 29.94 in 30.04 in 29.92 in -
Precipitation: 0.00 in      
Historical Graphs
 
 
Tabular Data for January 24, 2020
Time Temperature Dew Point Pressure Wind Wind Speed Wind Gust Humidity Rainfall Rate (Hourly) solar
00:04 32 °F 16.8 °F 30.04 in SW 2.5 mph 2.3 mph 53% 0.00 in 0 W/m2
00:09 31.7 °F 16.6 °F 30.04 in WSW 3.5 mph 3 mph 53.3% 0.00 in 0 W/m2
00:14 31.3 °F 16.6 °F 30.03 in West 3.3 mph 3 mph 54% 0.00 in 0 W/m2
00:19 30.9 °F 16.6 °F 30.03 in West 3.5 mph 3.2 mph 54.9% 0.00 in 0 W/m2
00:24 30.6 °F 16.6 °F 30.03 in WSW 3.5 mph 4 mph 55.7% 0.00 in 0 W/m2
00:29 30.7 °F 16.8 °F 30.03 in NW 2.4 mph 4 mph 56% 0.00 in 0 W/m2
00:34 30.8 °F 16.9 °F 30.03 in WNW 0.6 mph 2 mph 56% 0.00 in 0 W/m2
00:39 30.9 °F 16.7 °F 30.03 in Calm   1 mph 55.4% 0.00 in 0 W/m2
00:44 30.9 °F 16.6 °F 30.03 in Calm     55% 0.00 in 0 W/m2
00:49 30.9 °F 16.7 °F 30.03 in South 2.2 mph 1.7 mph 55.4% 0.00 in 0 W/m2
00:54 31 °F 16.9 °F 30.03 in SSE 2 mph 3 mph 55.6% 0.00 in 0 W/m2
00:59 30.9 °F 17 °F 30.03 in ESE 3.6 mph 3.5 mph 56% 0.00 in 0 W/m2
01:04 30.8 °F 16.9 °F 30.03 in East 2.8 mph 4 mph 56% 0.00 in 0 W/m2
01:09 30.8 °F 16.9 °F 30.03 in ENE 1.5 mph 3 mph 56% 0.00 in 0 W/m2
01:14 30.7 °F 16.8 °F 30.03 in NNW 2.5 mph 2.2 mph 56% 0.00 in 0 W/m2
01:19 30.6 °F 16.7 °F 30.03 in West 3.5 mph 3.1 mph 56% 0.00 in 0 W/m2
01:24 30.2 °F 16.7 °F 30.03 in WSW 3.8 mph 4.4 mph 56.8% 0.00 in 0 W/m2
01:29 29.9 °F 16.6 °F 30.03 in WSW 5.3 mph 6 mph 57.1% 0.00 in 0 W/m2
01:34 29.8 °F 16.8 °F 30.03 in WSW 6.6 mph 7 mph 58% 0.00 in 0 W/m2
01:39 29.7 °F 16.7 °F 30.03 in WSW 4.1 mph 8 mph 58% 0.00 in 0 W/m2
01:44 29.7 °F 16.7 °F 30.03 in West 2.4 mph 6 mph 58.1% 0.00 in 0 W/m2
01:49 29.6 °F 16.6 °F 30.03 in ENE 4.3 mph 3.8 mph 58.1% 0.00 in 0 W/m2
01:54 29.2 °F 16.4 °F 30.03 in ENE 2.3 mph 6 mph 58.3% 0.00 in 0 W/m2
01:59 29 °F 16.5 °F 30.03 in ESE 3 mph 2.4 mph 59.2% 0.00 in 0 W/m2
02:04 28.7 °F 16.6 °F 30.03 in SE 3 mph 3 mph 60% 0.00 in 0 W/m2
02:09 28.5 °F 16.7 °F 30.02 in SE 2.3 mph 3 mph 60.8% 0.00 in 0 W/m2
02:14 28.4 °F 16.7 °F 30.02 in SSE 2.1 mph 2 mph 61% 0.00 in 0 W/m2
02:19 28.2 °F 16.6 °F 30.02 in WSW 3.2 mph 3 mph 61.3% 0.00 in 0 W/m2
02:24 27.8 °F 16.5 °F 30.02 in WSW 3.1 mph 3.1 mph 62% 0.00 in 0 W/m2
02:29 27.4 °F 16.2 °F 30.02 in WSW 3.5 mph 4 mph 62.2% 0.00 in 0 W/m2
02:34 26.9 °F 16 °F 30.02 in WSW 2.2 mph 4 mph 63% 0.00 in 0 W/m2
02:39 26.8 °F 16.1 °F 30.02 in West 3.6 mph 3.3 mph 63.5% 0.00 in 0 W/m2
02:44 26.7 °F 16.1 °F 30.02 in West 4.3 mph 4 mph 63.8% 0.00 in 0 W/m2
02:49 26.6 °F 16 °F 30.02 in WNW 3.6 mph 6 mph 63.8% 0.00 in 0 W/m2
02:54 26.5 °F 16 °F 30.02 in WNW 3.3 mph 4 mph 64% 0.00 in 0 W/m2
02:59 26.5 °F 16 °F 30.02 in NNW 1.7 mph 3 mph 64% 0.00 in 0 W/m2
03:04 26.5 °F 16.1 °F 30.03 in ENE 2.8 mph 3 mph 64.1% 0.00 in 0 W/m2
03:09 26.6 °F 16.3 °F 30.03 in ENE 2.3 mph 3 mph 64.7% 0.00 in 0 W/m2
03:14 26.6 °F 16.3 °F 30.03 in NNW 3 mph 3.8 mph 64.6% 0.00 in 0 W/m2
03:19 26.6 °F 16.2 °F 30.03 in WNW 6 mph 5.3 mph 64.4% 0.00 in 0 W/m2
03:24 26.6 °F 16.1 °F 30.03 in WNW 5.5 mph 8 mph 64% 0.00 in 0 W/m2
03:29 26.5 °F 16 °F 30.03 in WNW 5.9 mph 7 mph 64% 0.00 in 0 W/m2
03:34 26.7 °F 16.1 °F 30.03 in West 9.6 mph 8.6 mph 64% 0.00 in 0 W/m2
03:39 26.9 °F 16.3 °F 30.02 in WNW 7.2 mph 12 mph 64% 0.00 in 0 W/m2
03:44 27.1 °F 16.4 °F 30.02 in West 7.5 mph 8 mph 63.7% 0.00 in 0 W/m2
03:49 27.3 °F 16.4 °F 30.02 in West 8.8 mph 8 mph 63% 0.00 in 0 W/m2
03:54 27.2 °F 16.3 °F 30.02 in West 5.8 mph 9 mph 63% 0.00 in 0 W/m2
03:59 27.1 °F 16.2 °F 30.02 in WSW 5.9 mph 8 mph 63% 0.00 in 0 W/m2
04:04 27 °F 16.1 °F 30.02 in SW 5.4 mph 7 mph 63.1% 0.00 in 0 W/m2
04:09 26.9 °F 16.3 °F 30.02 in WSW 4 mph 7 mph 64% 0.00 in 0 W/m2
04:14 26.9 °F 16.3 °F 30.02 in WSW 3.7 mph 6 mph 64% 0.00 in 0 W/m2
04:19 26.8 °F 16.2 °F 30.02 in WSW 6.3 mph 6 mph 64% 0.00 in 0 W/m2
04:24 26.9 °F 16.3 °F 30.01 in WSW 5.3 mph 7 mph 64% 0.00 in 0 W/m2
04:29 26.8 °F 16.2 °F 30.01 in WSW 3.3 mph 7 mph 64% 0.00 in 0 W/m2
04:34 26.8 °F 16.2 °F 30.01 in WSW 3.5 mph 4 mph 64% 0.00 in 0 W/m2
04:39 26.8 °F 16.2 °F 30.01 in WSW 2.8 mph 4 mph 64% 0.00 in 0 W/m2
04:44 26.8 °F 16.2 °F 30.01 in West 3.5 mph 3 mph 64% 0.00 in 0 W/m2
04:49 26.8 °F 16.2 °F 30.01 in West 4.8 mph 4.4 mph 64% 0.00 in 0 W/m2
04:54 27.1 °F 16.4 °F 30.01 in West 4.3 mph 6 mph 63.9% 0.00 in 0 W/m2
04:59 27.3 °F 16.4 °F 30.01 in WSW 4.3 mph 5 mph 63% 0.00 in 0 W/m2
05:04 27.5 °F 16.4 °F 30.02 in West 3.6 mph 6 mph 62.7% 0.00 in 0 W/m2
05:09 27.6 °F 16.4 °F 30.01 in WSW 3.5 mph 4 mph 62.5% 0.00 in 0 W/m2
05:14 27.6 °F 16.5 °F 30.01 in SW 2.9 mph 4 mph 62.6% 0.00 in 0 W/m2
05:19 27.5 °F 16.3 °F 30.02 in SE 4 mph 4.2 mph 62.3% 0.00 in 0 W/m2
05:24 27.1 °F 16.1 °F 30.02 in SSE 4.1 mph 5 mph 62.9% 0.00 in 0 W/m2
05:29 26.9 °F 16.4 °F 30.02 in SSE 5 mph 5 mph 64.2% 0.00 in 0 W/m2
05:34 27.3 °F 17.2 °F 30.02 in SSW 4.3 mph 6 mph 65.4% 0.00 in 0 W/m2
05:39 27.6 °F 17.1 °F 30.02 in SE 3.3 mph 6 mph 64.1% 0.00 in 0 W/m2
05:44 27.7 °F 16.9 °F 30.02 in South 3.2 mph 4 mph 63.6% 0.00 in 0 W/m2
05:49 27.8 °F 17 °F 30.02 in ESE 4.6 mph 5.1 mph 63.6% 0.00 in 0 W/m2
05:54 27.8 °F 17.1 °F 30.02 in SSE 2.9 mph 6 mph 63.8% 0.00 in 0 W/m2
05:59 27.7 °F 17.1 °F 30.02 in East 4.9 mph 5.4 mph 64% 0.00 in 0 W/m2
06:04 27.8 °F 16.9 °F 30.02 in East 3.8 mph 8 mph 63.3% 0.00 in 0 W/m2
06:09 27.7 °F 16.7 °F 30.02 in East 3.3 mph 5 mph 63% 0.00 in 0 W/m2
06:14 27.5 °F 16.5 °F 30.02 in SSE 2.1 mph 4 mph 63% 0.00 in 0 W/m2
06:19 27.4 °F 16.4 °F 30.02 in SW 3 mph 2.3 mph 63% 0.00 in 0 W/m2
06:24 27.1 °F 16.5 °F 30.02 in ENE 3 mph 3 mph 64% 0.00 in 0 W/m2
06:29 26.8 °F 16.3 °F 30.02 in ESE 3 mph 3 mph 64.3% 0.00 in 0 W/m2
06:34 26.6 °F 16.5 °F 30.02 in SE 3.2 mph 3 mph 65.3% 0.00 in 0 W/m2
06:39 26.5 °F 16.8 °F 30.02 in ESE 4 mph 4 mph 66.5% 0.00 in 0 W/m2
06:44 26.4 °F 16.6 °F 30.02 in ESE 4.1 mph 5 mph 66% 0.00 in 0 W/m2
06:49 26.4 °F 16.6 °F 30.02 in ESE 3.7 mph 5 mph 66% 0.00 in 0 W/m2
06:54 26.4 °F 16.6 °F 30.02 in SE 2.4 mph 4 mph 66% 0.00 in 0 W/m2
06:59 26.4 °F 16.6 °F 30.02 in SE 2 mph 2 mph 66% 0.00 in 0 W/m2
07:04 26.4 °F 16.6 °F 30.02 in SE 0.2 mph 2 mph 66% 0.00 in 0 W/m2
07:09 26.3 °F 16.2 °F 30.02 in SW 0.8 mph 2 mph 65.4% 0.00 in 0 W/m2
07:14 26 °F 16.2 °F 30.02 in SW 2.6 mph 3 mph 66% 0.00 in 0 W/m2
07:19 25.8 °F 16 °F 30.02 in SSW 2.8 mph 3 mph 66% 0.00 in 7 W/m2
07:24 25.6 °F 16 °F 30.02 in SSW 0.5 mph 4 mph 66.6% 0.00 in 9 W/m2
07:29 25.5 °F 16 °F 30.02 in SW 1.8 mph 2.4 mph 66.9% 0.00 in 11 W/m2
07:34 25.2 °F 15.8 °F 30.02 in SSW 3.1 mph 3 mph 66.9% 0.00 in 14 W/m2
07:39 25.1 °F 16 °F 30.02 in SSW 2.1 mph 3 mph 68% 0.00 in 16 W/m2
07:44 25 °F 15.9 °F 30.02 in SW 1.7 mph 2 mph 68% 0.00 in 25 W/m2
07:49 25 °F 15.9 °F 30.01 in WSW 3.1 mph 2.6 mph 68% 0.00 in 35 W/m2
07:54 25 °F 15.7 °F 30.01 in WSW 3.3 mph 3 mph 67.4% 0.00 in 46 W/m2
07:59 24.9 °F 15.8 °F 30.01 in WSW 3.1 mph 4 mph 67.8% 0.00 in 58 W/m2
08:04 25 °F 15.9 °F 30.01 in WSW 2.5 mph 3 mph 68% 0.00 in 70 W/m2
08:09 25.3 °F 16.4 °F 30.01 in WSW 3.4 mph 3.3 mph 68.6% 0.00 in 84 W/m2
08:14 25.7 °F 16.7 °F 30.01 in WSW 3.3 mph 4 mph 68.2% 0.00 in 100 W/m2
08:19 26.2 °F 17.1 °F 30.01 in West 2.8 mph 4 mph 68% 0.00 in 114 W/m2
08:24 26.6 °F 17.5 °F 30.01 in WNW 2.3 mph 3 mph 68% 0.00 in 134 W/m2
08:29 27.4 °F 18.1 °F 30.01 in SSE 2 mph 4 mph 67.7% 0.00 in 149 W/m2
08:34 28.3 °F 18.6 °F 30.01 in SSW 2.7 mph 3 mph 66.8% 0.00 in 167 W/m2
08:39 29.6 °F 19.4 °F 30.01 in South 3.5 mph 6 mph 65.3% 0.00 in 181 W/m2
08:44 30.9 °F 19.8 °F 30.01 in SW 2.4 mph 5 mph 62.9% 0.00 in 204 W/m2
08:49 32.3 °F 20.2 °F 30.01 in SSW 0.9 mph 3 mph 60.8% 0.00 in 218 W/m2
08:54 33.5 °F 20.4 °F 30.01 in SE 2.9 mph 4.4 mph 58.5% 0.00 in 237 W/m2
08:59 34.8 °F 20.5 °F 30.00 in SE 3.1 mph 7 mph 55.6% 0.00 in 248 W/m2
09:04 35.9 °F 20.7 °F 30.00 in ESE 2.3 mph 3 mph 53.7% 0.00 in 267 W/m2
09:09 36.7 °F 21.1 °F 30.00 in East 2.5 mph 3 mph 52.8% 0.00 in 287 W/m2
09:14 37.4 °F 21.1 °F 30.00 in NE 3.5 mph 4 mph 51.5% 0.00 in 297 W/m2
09:19 37.7 °F 21.2 °F 30.00 in NE 3.3 mph 4 mph 51% 0.00 in 320 W/m2
09:24 38 °F 21 °F 30.00 in ENE 2.5 mph 3 mph 50% 0.00 in 355 W/m2
09:29 38.5 °F 21.2 °F 30.00 in NE 3 mph 2.7 mph 49.3% 0.00 in 383 W/m2
09:34 39.1 °F 21.6 °F 30.00 in NE 4 mph 4.2 mph 49.2% 0.00 in 454 W/m2
09:39 39.5 °F 21.9 °F 30.00 in ENE 5 mph 5 mph 48.8% 0.00 in 468 W/m2
09:44 39.9 °F 21.8 °F 30.00 in ENE 5.1 mph 6 mph 47.9% 0.00 in 508 W/m2
09:49 40.1 °F 21.6 °F 30.01 in NE 7.1 mph 7 mph 47.2% 0.00 in 506 W/m2
09:54 40 °F 21.5 °F 30.01 in ENE 7.8 mph 8 mph 47% 0.00 in 406 W/m2
09:59 39.8 °F 21.7 °F 30.01 in East 7.3 mph 8 mph 47.9% 0.00 in 429 W/m2
10:04 39.7 °F 21.6 °F 30.01 in ENE 5.6 mph 8 mph 48% 0.00 in 478 W/m2
10:09 39.5 °F 21.4 °F 30.01 in NE 7.2 mph 7 mph 48% 0.00 in 441 W/m2
10:14 39.2 °F 21.5 °F 30.00 in ENE 4.3 mph 8 mph 48.8% 0.00 in 441 W/m2
10:19 39.4 °F 21.7 °F 30.00 in ENE 6.2 mph 5.6 mph 48.7% 0.00 in 446 W/m2
10:24 39.6 °F 21.6 °F 30.00 in ENE 6.3 mph 7 mph 48.2% 0.00 in 441 W/m2
10:29 39.8 °F 21.7 °F 30.00 in ENE 4.9 mph 7 mph 48% 0.00 in 438 W/m2
10:34 40 °F 21.9 °F 30.00 in ENE 6.3 mph 6 mph 48% 0.00 in 455 W/m2
10:39 40.4 °F 21.8 °F 30.00 in ENE 6.9 mph 8 mph 47.2% 0.00 in 457 W/m2
10:44 40.7 °F 22 °F 30.00 in NE 7.1 mph 8 mph 47% 0.00 in 462 W/m2
10:49 40.9 °F 21.9 °F 30.00 in NE 5.3 mph 9 mph 46.4% 0.00 in 473 W/m2
10:54 41.1 °F 21.9 °F 30.00 in East 7.1 mph 6.5 mph 46% 0.00 in 476 W/m2
10:59 41.3 °F 22.1 °F 30.00 in ENE 5.8 mph 8 mph 46% 0.00 in 506 W/m2
11:04 42.1 °F 22.2 °F 30.00 in East 6.2 mph 7 mph 44.8% 0.00 in 515 W/m2
11:09 42.8 °F 22.4 °F 29.99 in East 5.7 mph 7 mph 44% 0.00 in 527 W/m2
11:14 43.1 °F 22.2 °F 29.99 in ENE 6.4 mph 7 mph 43.2% 0.00 in 445 W/m2
11:19 43.5 °F 22.4 °F 29.99 in East 3.6 mph 8 mph 42.9% 0.00 in 469 W/m2
11:24 44.1 °F 22.4 °F 29.99 in ESE 3.3 mph 4 mph 42% 0.00 in 504 W/m2
11:29 44.5 °F 22.4 °F 29.98 in ENE 4.5 mph 4.5 mph 41.3% 0.00 in 422 W/m2
11:34 44.7 °F 22.4 °F 29.98 in ENE 4.7 mph 7 mph 41% 0.00 in 320 W/m2
11:39 44.9 °F 22.6 °F 29.98 in ENE 3.9 mph 5 mph 41% 0.00 in 338 W/m2
11:44 45.2 °F 22.9 °F 29.98 in East 3.5 mph 6 mph 40.9% 0.00 in 422 W/m2
11:49 46 °F 22.9 °F 29.97 in East 3.5 mph 4 mph 39.9% 0.00 in 476 W/m2
11:54 46.6 °F 23 °F 29.97 in East 3.7 mph 4.6 mph 39% 0.00 in 494 W/m2
11:59 47.1 °F 22.8 °F 29.97 in ESE 4.1 mph 6 mph 38.1% 0.00 in 480 W/m2
12:04 47.6 °F 23.2 °F 29.97 in ESE 4.4 mph 6 mph 38% 0.00 in 543 W/m2
12:09 48.1 °F 22.9 °F 29.96 in ESE 4.9 mph 6 mph 36.9% 0.00 in 543 W/m2
12:14 48.4 °F 22.6 °F 29.96 in East 7 mph 7.7 mph 36% 0.00 in 462 W/m2
12:19 48.5 °F 22.7 °F 29.96 in ESE 7.1 mph 9 mph 36% 0.00 in 526 W/m2
12:24 48.7 °F 22.6 °F 29.95 in ESE 6.9 mph 8.3 mph 35.6% 0.00 in 554 W/m2
12:29 49.1 °F 22.6 °F 29.95 in East 7 mph 9 mph 35% 0.00 in 548 W/m2
12:34 49.8 °F 23 °F 29.95 in ESE 6.9 mph 8 mph 34.7% 0.00 in 552 W/m2
12:39 50.2 °F 22.9 °F 29.95 in East 8 mph 8 mph 34% 0.00 in 547 W/m2
12:44 50.9 °F 23.2 °F 29.94 in NE 3.5 mph 9 mph 33.6% 0.00 in 543 W/m2
12:49 51.8 °F 22.5 °F 29.94 in WNW 7.1 mph 8.9 mph 31.7% 0.00 in 545 W/m2
12:54 52.5 °F 20.6 °F 29.94 in West 12.7 mph 12 mph 28.4% 0.00 in 538 W/m2
12:59 52.9 °F 20.2 °F 29.93 in West 9.5 mph 16 mph 27.5% 0.00 in 468 W/m2
13:04 53 °F 19.9 °F 29.93 in West 9.6 mph 10.7 mph 27% 0.00 in 510 W/m2
13:09 53.2 °F 20.5 °F 29.93 in West 9 mph 12 mph 27.5% 0.00 in 504 W/m2
13:14 53.4 °F 21.6 °F 29.93 in NE 9.4 mph 10.3 mph 28.6% 0.00 in 508 W/m2
13:19 53.4 °F 21.8 °F 29.93 in NNW 5.3 mph 13 mph 28.9% 0.00 in 508 W/m2
13:24 53.4 °F 21.6 °F 29.93 in WNW 6.4 mph 10 mph 28.5% 0.00 in 503 W/m2
13:29 53.7 °F 21.5 °F 29.92 in NNW 7.5 mph 9 mph 28.3% 0.00 in 527 W/m2
13:34 53.8 °F 21.4 °F 29.92 in NW 6 mph 9 mph 28% 0.00 in 531 W/m2
13:39 53.8 °F 21.4 °F 29.92 in WNW 8 mph 10 mph 28% 0.00 in 536 W/m2
13:44 53.9 °F 21.5 °F 29.92 in NNW 8.8 mph 9 mph 28% 0.00 in 480 W/m2
13:49 53.6 °F 21.2 °F 29.92 in NNW 7.8 mph 10 mph 28% 0.00 in 339 W/m2
13:54 53.3 °F 22.3 °F 29.92 in NNE 9.2 mph 10 mph 29.7% 0.00 in 288 W/m2
13:59 52.7 °F 22.1 °F 29.92 in NNE 8.9 mph 10 mph 30.1% 0.00 in 283 W/m2
14:04 52.1 °F 22.3 °F 29.92 in NNE 7.9 mph 10 mph 31% 0.00 in 250 W/m2
14:09 51.8 °F 22.1 °F 29.92 in NNE 5 mph 10 mph 31% 0.00 in 343 W/m2
14:14 51.6 °F 22.2 °F 29.92 in NNE 5.6 mph 7 mph 31.4% 0.00 in 169 W/m2
14:19 51.5 °F 22.6 °F 29.92 in NNE 4.7 mph 6 mph 32% 0.00 in 111 W/m2
14:24 51.2 °F 22.5 °F 29.92 in NE 8.8 mph 7.9 mph 32.3% 0.00 in 104 W/m2
14:29 50.4 °F 22.4 °F 29.92 in NE 9.3 mph 10 mph 33.1% 0.00 in 93 W/m2
14:34 49.7 °F 22.4 °F 29.92 in NNE 9.2 mph 9 mph 34% 0.00 in 98 W/m2
14:39 49.2 °F 22.4 °F 29.92 in NNE 6.3 mph 9 mph 34.6% 0.00 in 91 W/m2
14:44 48.9 °F 22.4 °F 29.92 in NNE 6.2 mph 7 mph 35% 0.00 in 74 W/m2
14:49 48.6 °F 22.3 °F 29.92 in North 4.5 mph 8 mph 35.3% 0.00 in 81 W/m2
14:54 48.5 °F 22.7 °F 29.92 in North 5 mph 6 mph 36% 0.00 in 81 W/m2
14:59 48.2 °F 22.5 °F 29.92 in North 4.9 mph 6 mph 36% 0.00 in 88 W/m2
15:04 48.1 °F 22.4 °F 29.92 in North 3.4 mph 5 mph 36% 0.00 in 88 W/m2
15:09 48 °F 22.3 °F 29.92 in NNE 4 mph 6 mph 36% 0.00 in 83 W/m2
15:14 47.9 °F 22.2 °F 29.92 in NNE 2.4 mph 4 mph 36% 0.00 in 83 W/m2
15:19 47.9 °F 22.7 °F 29.93 in NNW 2.6 mph 3 mph 36.9% 0.00 in 76 W/m2
15:24 47.9 °F 22.2 °F 29.92 in NNE 3.3 mph 3 mph 36.1% 0.00 in 63 W/m2
15:29 47.8 °F 22.3 °F 29.93 in North 3 mph 3 mph 36.4% 0.00 in 58 W/m2
15:34 47.7 °F 22.7 °F 29.93 in NNW 2.8 mph 3 mph 37% 0.00 in 60 W/m2
15:39 47.6 °F 22.6 °F 29.93 in North 2.6 mph 3 mph 37% 0.00 in 63 W/m2
15:44 47.6 °F 22.6 °F 29.93 in WNW 2.2 mph 3 mph 37% 0.00 in 63 W/m2
15:49 47.4 °F 22.4 °F 29.93 in WSW 4.6 mph 4.4 mph 37% 0.00 in 60 W/m2
15:54 47.1 °F 22.4 °F 29.93 in West 3.1 mph 6 mph 37.4% 0.00 in 54 W/m2
15:59 46.8 °F 22.5 °F 29.93 in West 3.6 mph 4 mph 38% 0.00 in 47 W/m2
16:04 46.5 °F 22.5 °F 29.93 in West 3.5 mph 5 mph 38.4% 0.00 in 40 W/m2
16:09 46.3 °F 22.6 °F 29.93 in West 3.1 mph 3 mph 38.9% 0.00 in 33 W/m2
16:14 46 °F 22.4 °F 29.93 in West 3.5 mph 4 mph 39% 0.00 in 26 W/m2
16:19 45.8 °F 22.3 °F 29.93 in WNW 4.3 mph 4 mph 39.2% 0.00 in 23 W/m2
16:24 45.6 °F 22.6 °F 29.93 in NW 3.8 mph 5 mph 40% 0.00 in 25 W/m2
16:29 45.5 °F 22.5 °F 29.93 in NW 3 mph 5 mph 40% 0.00 in 25 W/m2
16:34 45.5 °F 22.5 °F 29.93 in West 3.1 mph 3.2 mph 40% 0.00 in 25 W/m2
16:39 45.3 °F 22.4 °F 29.93 in West 3.3 mph 4 mph 40% 0.00 in 18 W/m2
16:44 45.2 °F 22.3 °F 29.93 in West 2.8 mph 3 mph 40% 0.00 in 16 W/m2
16:49 45.2 °F 22.3 °F 29.93 in West 2.8 mph 4 mph 40% 0.00 in 11 W/m2
16:54 45.1 °F 22.2 °F 29.94 in NW 1 mph 3 mph 40% 0.00 in 7 W/m2
16:59 45.1 °F 22.3 °F 29.94 in NW 1.6 mph 2 mph 40.2% 0.00 in 5 W/m2
17:04 45 °F 22.2 °F 29.94 in NW 1 mph 2 mph 40.2% 0.00 in 0 W/m2
17:09 45 °F 22.1 °F 29.94 in NW 3 mph 3 mph 40% 0.00 in 0 W/m2
17:14 44.9 °F 22 °F 29.94 in North 2.1 mph 4 mph 40% 0.00 in 0 W/m2
17:19 44.7 °F 21.8 °F 29.94 in SSE 2.5 mph 3.1 mph 40% 0.00 in 0 W/m2
17:24 44.6 °F 21.7 °F 29.94 in WNW 3.8 mph 4 mph 40% 0.00 in 0 W/m2
17:29 44.5 °F 21.6 °F 29.94 in North 2.8 mph 5 mph 40% 0.00 in 0 W/m2
17:34 44.4 °F 21.6 °F 29.94 in NE 2.4 mph 3 mph 40% 0.00 in 0 W/m2
17:39 44.4 °F 21.6 °F 29.94 in NW 2.8 mph 3 mph 40% 0.00 in 0 W/m2
17:44 44.5 °F 21.6 °F 29.94 in ENE 3.7 mph 3.8 mph 40% 0.00 in 0 W/m2
17:49 44.5 °F 21.7 °F 29.94 in WSW 4.5 mph 6 mph 40.2% 0.00 in 0 W/m2
17:54 44.5 °F 21.6 °F 29.94 in SSE 2.6 mph 6 mph 40% 0.00 in 0 W/m2
17:59 44.4 °F 21.9 °F 29.94 in SSW 1.2 mph 4 mph 40.7% 0.00 in 0 W/m2
18:04 44.3 °F 22.1 °F 29.94 in West 3.3 mph 3.1 mph 41% 0.00 in 0 W/m2
18:09 44.1 °F 21.9 °F 29.95 in West 1.8 mph 4 mph 41% 0.00 in 0 W/m2
18:14 43.9 °F 22 °F 29.95 in SE 2.6 mph 2.2 mph 41.4% 0.00 in 0 W/m2
18:19 43.7 °F 22.1 °F 29.95 in WSW 3.2 mph 4 mph 42% 0.00 in 0 W/m2
18:24 43.4 °F 21.8 °F 29.95 in West 3.3 mph 3 mph 42% 0.00 in 0 W/m2
18:29 43.2 °F 21.6 °F 29.95 in NW 2.8 mph 3 mph 42% 0.00 in 0 W/m2
18:34 43.1 °F 21.5 °F 29.95 in SSE 3.6 mph 3.9 mph 42% 0.00 in 0 W/m2
18:39 43.1 °F 21.7 °F 29.95 in SSW 2.6 mph 5 mph 42.4% 0.00 in 0 W/m2
18:44 43 °F 21.9 °F 29.95 in West 3.5 mph 3.3 mph 42.9% 0.00 in 0 W/m2
18:49 42.8 °F 21.8 °F 29.95 in WSW 2.1 mph 4 mph 43% 0.00 in 0 W/m2
18:54 42.7 °F 21.7 °F 29.95 in SW 2.4 mph 2.5 mph 43% 0.00 in 0 W/m2
18:59 42.6 °F 21.6 °F 29.95 in WSW 2.9 mph 3.6 mph 43% 0.00 in 0 W/m2
19:04 42.5 °F 21.7 °F 29.95 in West 2.6 mph 4 mph 43.4% 0.00 in 0 W/m2
19:09 42.4 °F 21.9 °F 29.94 in South 2 mph 3 mph 43.8% 0.00 in 0 W/m2
19:14 42.3 °F 21.9 °F 29.94 in SW 2.4 mph 3 mph 44% 0.00 in 0 W/m2
19:19 42.2 °F 21.8 °F 29.95 in West 2.8 mph 3 mph 44% 0.00 in 0 W/m2
19:24 42.1 °F 21.7 °F 29.95 in West 2.2 mph 3 mph 44% 0.00 in 0 W/m2
19:29 42 °F 22 °F 29.94 in WSW 2.4 mph 3 mph 44.7% 0.00 in 0 W/m2
19:34 41.9 °F 22.1 °F 29.95 in WSW 5 mph 4.6 mph 45% 0.00 in 0 W/m2
19:39 41.7 °F 21.9 °F 29.95 in WNW 2.9 mph 7 mph 45% 0.00 in 0 W/m2
19:44 41.6 °F 21.8 °F 29.95 in West 4.2 mph 4.8 mph 45% 0.00 in 0 W/m2
19:49 41.6 °F 21.8 °F 29.95 in West 3.5 mph 7 mph 45% 0.00 in 0 W/m2
19:54 41.5 °F 21.7 °F 29.95 in WSW 3.6 mph 6 mph 45% 0.00 in 0 W/m2
19:59 41.5 °F 21.9 °F 29.95 in West 4.3 mph 3.8 mph 45.5% 0.00 in 0 W/m2
20:04 41.3 °F 22.1 °F 29.95 in West 3.5 mph 6 mph 46% 0.00 in 0 W/m2
20:09 41.1 °F 21.9 °F 29.95 in WSW 3.6 mph 4 mph 46% 0.00 in 0 W/m2
20:14 41 °F 21.8 °F 29.95 in WSW 3.3 mph 4 mph 46% 0.00 in 0 W/m2
20:19 40.9 °F 21.7 °F 29.95 in WSW 3 mph 4 mph 46% 0.00 in 0 W/m2
20:24 40.9 °F 21.7 °F 29.95 in WSW 1.5 mph 3 mph 46% 0.00 in 0 W/m2
20:29 40.9 °F 21.7 °F 29.95 in WSW 1.4 mph 2 mph 46% 0.00 in 0 W/m2
20:34 40.9 °F 21.7 °F 29.95 in SSE 2.8 mph 2.3 mph 46% 0.00 in 0 W/m2
20:39 40.9 °F 21.7 °F 29.95 in SSW 3 mph 3 mph 46% 0.00 in 0 W/m2
20:44 40.9 °F 21.7 °F 29.95 in WSW 1.1 mph 3 mph 46% 0.00 in 0 W/m2
20:49 40.9 °F 22.1 °F 29.95 in WNW 2.8 mph 3 mph 46.8% 0.00 in 0 W/m2
20:54 40.9 °F 22.2 °F 29.95 in WSW 4.6 mph 6.4 mph 47% 0.00 in 0 W/m2
20:59 40.9 °F 22.2 °F 29.95 in West 5.4 mph 8 mph 47% 0.00 in 0 W/m2
21:04 41 °F 22.2 °F 29.95 in West 3.6 mph 6 mph 46.7% 0.00 in 0 W/m2
21:09 41.2 °F 22 °F 29.95 in West 3.6 mph 4 mph 46% 0.00 in 0 W/m2
21:14 41.2 °F 22 °F 29.95 in WSW 5.2 mph 5 mph 46% 0.00 in 0 W/m2
21:19 41.3 °F 22.1 °F 29.95 in WSW 4.4 mph 6 mph 46% 0.00 in 0 W/m2
21:24 41.5 °F 22.2 °F 29.95 in West 2.6 mph 6 mph 46% 0.00 in 0 W/m2
21:29 41.6 °F 22.3 °F 29.95 in ENE 3.2 mph 2.3 mph 46% 0.00 in 0 W/m2
21:34 41.6 °F 22.3 °F 29.95 in ESE 2.6 mph 3 mph 46% 0.00 in 0 W/m2
21:39 41.6 °F 22.6 °F 29.95 in SSE 3.2 mph 3.1 mph 46.6% 0.00 in 0 W/m2
21:44 41.7 °F 23.1 °F 29.95 in South 3.8 mph 4.7 mph 47.5% 0.00 in 0 W/m2
21:49 41.8 °F 22.5 °F 29.95 in WSW 4.5 mph 5 mph 46% 0.00 in 0 W/m2
21:54 42 °F 22.3 °F 29.94 in West 3.8 mph 6 mph 45.1% 0.00 in 0 W/m2
21:59 42.1 °F 22.3 °F 29.94 in West 5.8 mph 4.9 mph 45% 0.00 in 0 W/m2
22:04 42.3 °F 22.4 °F 29.95 in West 6.3 mph 7 mph 45% 0.00 in 0 W/m2
22:09 42.5 °F 22.6 °F 29.94 in West 7.4 mph 8 mph 45% 0.00 in 0 W/m2
22:14 42.5 °F 22.5 °F 29.94 in West 6 mph 8 mph 44.7% 0.00 in 0 W/m2
22:19 42.9 °F 22.4 °F 29.94 in West 6.1 mph 7 mph 44% 0.00 in 0 W/m2
22:24 43.1 °F 22.6 °F 29.94 in West 7.1 mph 7 mph 44% 0.00 in 0 W/m2
22:29 43.6 °F 22.5 °F 29.94 in West 9.7 mph 8.4 mph 43% 0.00 in 0 W/m2
22:34 44.4 °F 22.9 °F 29.94 in West 10.3 mph 12 mph 42.3% 0.00 in 0 W/m2
22:39 45.1 °F 23 °F 29.94 in West 11.7 mph 13 mph 41.3% 0.00 in 0 W/m2
22:44 45.9 °F 22.9 °F 29.94 in West 10.8 mph 14 mph 40.1% 0.00 in 0 W/m2
22:49 46.2 °F 23.2 °F 29.94 in West 10 mph 12 mph 40% 0.00 in 0 W/m2
22:54 46.2 °F 23.2 °F 29.94 in West 8.7 mph 12 mph 40% 0.00 in 0 W/m2
22:59 46.1 °F 23.1 °F 29.94 in WSW 10.2 mph 10 mph 40% 0.00 in 0 W/m2
23:04 46.2 °F 23.2 °F 29.94 in West 11.1 mph 12 mph 40% 0.00 in 0 W/m2
23:09 46.3 °F 23.3 °F 29.94 in West 11.1 mph 12 mph 40% 0.00 in 0 W/m2
23:14 46.2 °F 22.7 °F 29.94 in West 11 mph 12 mph 39.2% 0.00 in 0 W/m2
Rockcreek-Hillcrest Superior, Colorado, USA
Compliments of Weather Underground - 2 mb